Airfield :
LOGIN :

Register | Disclaimer

   EN    FR    IT 

 










Legend :    VFR   Marginal VFR   IFR   Intensive IFR   Very Intensive IFR
Visi :
Ceiling :
>= 8 km
>= 3000ft
5 to 8 km
1000 to 3000 ft
1500m to 5 km
500 to 1000 ft
800 to 1500m
200 to 500 ft
< 800m
< 200 ft
Symbols :   Thunderstorms  Fog  Heavy snow  Heavy precipitations  Wind > 20 kt
SIGMETs :     Misc.  Thunderstorms  Icing  Turbulence  Mountain Waves  Volcanic Ashes







- Airport Elevation : 160 ft
- IATA code : LRT
- Download approach charts


LFRH - Lorient Lann Bihoue

CURRENT METAR :
  • 211700Z AUTO 19004KT 160V240 9999 SCT019 22/17 Q1015 TEMPO SHRA BKN015TCU

EXPIRED METARs :
  • 211630Z AUTO 19004KT 120V250 9999 SCT019 SCT024 22/17 Q1015 TEMPO SHRA BKN015TCU
  • 211600Z AUTO 20005KT 9999 SCT019 22/17 Q1015 BECMG SHRA BKN015TCU
  • 211530Z AUTO 15006KT 120V210 9999 BKN019 22/17 Q1015 BECMG SHRA BKN015TCU
  • 211500Z AUTO 16007KT 130V200 9999 BKN017 BKN047 22/17 Q1015 BECMG SHRA BKN015TCU
  • 211430Z AUTO 17008KT 140V200 9999 BKN016 BKN022 BKN029 21/18 Q1015 BECMG SHRA BKN015TCU

TAF AMD TAF LFRH
Valid from the 21 at 13:00 until the 22 at 12:00 UTC


211314Z 2113/2212 15005KT 9999 BKN007 BKN013 BKN025
BECMG 2113/2115 SHRA BKN015TCU
BECMG 2118/2120 CAVOK
PROB40 2200/2206 2000 BR
BECMG 2210/2212 25010KT
No reported NOTAMs for that airfield.



MET'MAP, your aeronautical weather chart ! - Copyright ORBIFLY December 2007 - Disclaimer

ORBIFLY MET'MAP TEAM :

Programming & Development : Alexandra Zaïnal
Concept & Development : Baudouin d'Aumeries
Co-Development & Prog : Marc-Olivier Méhu
Technical & hardware support : Manuel Goepfert

Contact : metmap@orbifly.com




SOURCES & CREDITS :

   NOAA